createdAt,value
2023-04-01T00:01:30.508Z,96514.28
2023-04-01T00:04:34.861Z,96512.13
2023-04-01T00:07:40.712Z,96509.59
2023-04-01T00:10:43.457Z,96508.06
2023-04-01T00:13:46.651Z,96505.41
2023-04-01T00:16:49.385Z,96511.31
2023-04-01T00:19:52.143Z,96520.16
2023-04-01T00:22:55.333Z,96526.66
2023-04-01T00:26:01.289Z,96529.63
2023-04-01T00:29:04.099Z,96522.88
2023-04-01T00:32:07.179Z,96518.06
2023-04-01T00:35:10.663Z,96512.81
2023-04-01T00:38:13.927Z,96517.25
2023-04-01T00:41:18.329Z,96517.38
2023-04-01T00:44:24.581Z,96521.66
2023-04-01T00:47:28.248Z,96523.75
2023-04-01T00:50:32.293Z,96528.69
2023-04-01T00:53:39.287Z,96521.47
2023-04-01T00:56:46.819Z,96524.09
2023-04-01T00:59:51.316Z,96531.97
2023-04-01T01:02:54.246Z,96536.03
2023-04-01T01:06:40.409Z,96527.88
2023-04-01T01:09:58.143Z,96524.94
2023-04-01T01:13:10.151Z,96536.34
2023-04-01T01:16:25.414Z,96521.09
2023-04-01T01:20:03.075Z,96524.13
2023-04-01T01:23:43.470Z,96525.59
2023-04-01T01:26:46.108Z,96521.31
2023-04-01T01:29:54.847Z,96520.81
2023-04-01T01:33:26.846Z,96513.41
2023-04-01T01:36:35.886Z,96525.38
2023-04-01T01:39:44.485Z,96529.22
2023-04-01T01:42:53.707Z,96525.00
2023-04-01T01:45:59.480Z,96522.78
2023-04-01T01:49:04.634Z,96516.84
2023-04-01T01:52:07.442Z,96527.13
2023-04-01T01:55:30.875Z,96517.63
2023-04-01T01:58:41.691Z,96525.03
2023-04-01T02:01:59.500Z,96530.94
2023-04-01T02:05:03.133Z,96535.63
2023-04-01T02:08:29.306Z,96528.56
2023-04-01T02:11:36.504Z,96523.25
2023-04-01T02:14:53.945Z,96528.03
2023-04-01T02:17:58.272Z,96520.53
2023-04-01T02:21:02.018Z,96523.59
2023-04-01T02:24:08.009Z,96514.94
2023-04-01T02:27:12.307Z,96518.38
2023-04-01T02:30:16.838Z,96513.84
2023-04-01T02:33:20.976Z,96504.25
2023-04-01T02:36:23.708Z,96508.44
2023-04-01T02:39:27.662Z,96506.44
2023-04-01T02:42:30.435Z,96507.69
2023-04-01T02:45:33.286Z,96501.94
2023-04-01T02:48:36.127Z,96508.44
2023-04-01T02:51:38.830Z,96503.53
2023-04-01T02:54:42.188Z,96511.41
2023-04-01T02:57:45.216Z,96511.50
2023-04-01T03:00:47.997Z,96511.75
2023-04-01T03:03:50.802Z,96505.91
2023-04-01T03:06:53.589Z,96501.66
2023-04-01T03:09:56.363Z,96493.69
2023-04-01T03:12:59.093Z,96496.06
2023-04-01T03:16:02.687Z,96492.34
2023-04-01T03:19:05.396Z,96494.31
2023-04-01T03:22:09.006Z,96502.38
2023-04-01T03:25:12.319Z,96497.94
2023-04-01T03:28:15.321Z,96499.31
2023-04-01T03:31:18.164Z,96497.75
2023-04-01T03:34:27.414Z,96499.81
2023-04-01T03:37:30.254Z,96505.81
2023-04-01T03:40:34.392Z,96506.34
2023-04-01T03:43:37.450Z,96501.38
2023-04-01T03:46:41.501Z,96492.16
2023-04-01T03:49:44.748Z,96505.53
2023-04-01T03:52:47.460Z,96502.28
2023-04-01T03:55:52.601Z,96501.84
2023-04-01T03:58:55.358Z,96516.25
2023-04-01T04:01:58.265Z,96503.00
2023-04-01T04:05:01.221Z,96516.25
2023-04-01T04:08:05.373Z,96514.19
2023-04-01T04:11:10.383Z,96513.47
2023-04-01T04:14:16.444Z,96524.66
2023-04-01T04:17:19.801Z,96522.03
2023-04-01T04:20:22.925Z,96529.97
2023-04-01T04:23:25.789Z,96527.63
2023-04-01T04:26:28.685Z,96533.50
2023-04-01T04:29:35.799Z,96534.28
2023-04-01T04:32:38.738Z,96529.84
2023-04-01T04:35:42.082Z,96537.41
2023-04-01T04:38:45.002Z,96538.41
2023-04-01T04:41:47.923Z,96542.06
2023-04-01T04:44:51.131Z,96546.16
2023-04-01T04:47:54.117Z,96542.00
2023-04-01T04:50:57.002Z,96540.00
2023-04-01T04:54:00.227Z,96544.00
2023-04-01T04:57:16.873Z,96551.50
2023-04-01T05:00:26.891Z,96536.94
2023-04-01T05:03:34.129Z,96537.97
2023-04-01T05:06:37.200Z,96538.97
2023-04-01T05:09:40.929Z,96526.56
2023-04-01T05:12:43.808Z,96530.47
2023-04-01T05:15:51.260Z,96541.41
2023-04-01T05:18:54.083Z,96530.28
2023-04-01T05:21:57.248Z,96533.81
2023-04-01T05:25:00.145Z,96537.16
2023-04-01T05:28:05.791Z,96536.22
2023-04-01T05:31:09.438Z,96532.53
2023-04-01T05:34:16.991Z,96533.19
2023-04-01T05:37:20.977Z,96525.03
2023-04-01T05:40:24.441Z,96521.81
2023-04-01T05:43:27.261Z,96516.09
2023-04-01T05:46:33.490Z,96518.38
2023-04-01T05:49:54.193Z,96520.34
2023-04-01T05:52:57.009Z,96500.13
2023-04-01T05:56:04.638Z,96501.28
2023-04-01T05:59:12.661Z,96502.28
2023-04-01T06:02:18.828Z,96515.00
2023-04-01T06:05:24.927Z,96521.63
2023-04-01T06:08:28.251Z,96529.91
2023-04-01T06:11:46.600Z,96529.66
2023-04-01T06:14:58.616Z,96534.34
2023-04-01T06:18:32.525Z,96532.72
2023-04-01T06:21:57.183Z,96542.88
2023-04-01T06:25:50.342Z,96529.66
2023-04-01T06:29:05.889Z,96539.34
2023-04-01T06:32:27.060Z,96526.69
2023-04-01T06:35:55.388Z,96526.94
2023-04-01T06:39:28.957Z,96550.06
2023-04-01T06:42:37.964Z,96553.88
2023-04-01T06:46:08.484Z,96549.72
2023-04-01T06:50:27.781Z,96551.53
2023-04-01T06:54:04.985Z,96560.66
2023-04-01T06:57:56.852Z,96566.72
2023-04-01T07:01:02.660Z,96564.63
2023-04-01T07:04:11.953Z,96573.28
2023-04-01T07:07:17.955Z,96568.56
2023-04-01T07:10:44.306Z,96576.72
2023-04-01T07:14:30.832Z,96580.81
2023-04-01T07:17:35.570Z,96589.31
2023-04-01T07:20:39.675Z,96587.16
2023-04-01T07:23:45.695Z,96584.13
2023-04-01T07:27:16.070Z,96580.25
2023-04-01T07:30:23.147Z,96577.91
2023-04-01T07:33:51.264Z,96585.78
2023-04-01T07:37:07.554Z,96590.31
2023-04-01T07:40:40.205Z,96585.03
2023-04-01T07:44:13.202Z,96580.44
2023-04-01T07:47:57.987Z,96587.78
2023-04-01T07:51:24.557Z,96580.00
2023-04-01T07:54:36.895Z,96577.94
2023-04-01T07:57:43.495Z,96569.84
2023-04-01T08:01:05.111Z,96579.75
2023-04-01T08:04:15.576Z,96572.88
2023-04-01T08:07:27.544Z,96574.88
2023-04-01T08:11:12.194Z,96577.94
2023-04-01T08:14:49.993Z,96574.72
2023-04-01T08:18:15.304Z,96584.88
2023-04-01T08:21:37.035Z,96588.84
2023-04-01T08:24:48.164Z,96589.75
2023-04-01T08:28:29.847Z,96588.84
2023-04-01T08:32:01.605Z,96596.16
2023-04-01T08:35:19.516Z,96594.38
2023-04-01T08:38:26.974Z,96595.59
2023-04-01T08:41:57.049Z,96596.81
2023-04-01T08:45:26.161Z,96601.34
2023-04-01T08:48:50.567Z,96594.53
2023-04-01T08:52:22.746Z,96598.75
2023-04-01T08:56:03.337Z,96610.88
2023-04-01T08:59:31.482Z,96597.69
2023-04-01T09:02:51.913Z,96602.34
2023-04-01T09:06:27.170Z,96603.78
2023-04-01T09:10:10.762Z,96603.03
2023-04-01T09:13:22.926Z,96600.63
2023-04-01T09:16:53.497Z,96607.94
2023-04-01T09:20:05.622Z,96605.19
2023-04-01T09:23:29.673Z,96612.84
2023-04-01T09:26:51.190Z,96607.69
2023-04-01T09:30:11.035Z,96614.59
2023-04-01T09:33:38.642Z,96615.06
2023-04-01T09:37:02.586Z,96624.34
2023-04-01T09:40:25.198Z,96623.75
2023-04-01T09:44:03.113Z,96624.69
2023-04-01T09:47:31.868Z,96627.44
2023-04-01T09:50:38.152Z,96623.78
2023-04-01T09:54:07.420Z,96612.00
2023-04-01T09:57:38.750Z,96612.22
2023-04-01T10:01:18.552Z,96610.97
2023-04-01T10:04:48.611Z,96610.72
2023-04-01T10:07:58.214Z,96615.97
2023-04-01T10:11:26.564Z,96622.19
2023-04-01T10:14:38.662Z,96618.53
2023-04-01T10:18:06.352Z,96615.75
2023-04-01T10:21:38.628Z,96610.00
2023-04-01T10:25:08.874Z,96626.00
2023-04-01T10:28:33.941Z,96617.63
2023-04-01T10:32:30.201Z,96615.19
2023-04-01T10:35:45.379Z,96613.56
2023-04-01T10:39:18.917Z,96613.44
2023-04-01T10:42:50.960Z,96615.44
2023-04-01T10:46:38.539Z,96614.09
2023-04-01T10:50:06.978Z,96611.69
2023-04-01T10:53:31.563Z,96612.06
2023-04-01T10:57:22.735Z,96617.31
2023-04-01T11:00:45.642Z,96620.59
2023-04-01T11:04:44.146Z,96611.56
2023-04-01T11:08:40.454Z,96611.56
2023-04-01T11:12:01.884Z,96608.28
2023-04-01T11:15:20.834Z,96609.59
2023-04-01T11:18:32.534Z,96612.44
2023-04-01T11:22:23.157Z,96605.34
2023-04-01T11:26:18.657Z,96625.44
2023-04-01T11:30:09.250Z,96611.50
2023-04-01T11:33:27.622Z,96622.59
2023-04-01T11:36:50.333Z,96625.91
2023-04-01T11:40:07.472Z,96623.78
2023-04-01T11:43:47.916Z,96618.56
2023-04-01T11:47:15.721Z,96624.25
2023-04-01T11:50:40.724Z,96620.13
2023-04-01T11:54:14.112Z,96622.16
2023-04-01T11:57:54.260Z,96626.22
2023-04-01T12:01:24.492Z,96629.47
2023-04-01T12:04:46.843Z,96632.28
2023-04-01T12:08:24.399Z,96618.16
2023-04-01T12:11:43.081Z,96618.97
2023-04-01T12:15:24.794Z,96619.78
2023-04-01T12:18:46.332Z,96620.34
2023-04-01T12:22:10.916Z,96621.63
2023-04-01T12:25:51.910Z,96616.56
2023-04-01T12:29:11.081Z,96611.25
2023-04-01T12:32:47.425Z,96611.44
2023-04-01T12:36:10.130Z,96611.47
2023-04-01T12:39:37.465Z,96608.63
2023-04-01T12:43:05.376Z,96613.22
2023-04-01T12:46:08.096Z,96621.34
2023-04-01T12:49:46.952Z,96626.44
2023-04-01T12:53:11.743Z,96630.19
2023-04-01T12:56:31.839Z,96624.03
2023-04-01T12:59:40.796Z,96629.78
2023-04-01T13:03:15.709Z,96620.75
2023-04-01T13:06:42.640Z,96635.59
2023-04-01T13:10:09.687Z,96637.88
2023-04-01T13:13:38.683Z,96630.72
2023-04-01T13:16:47.043Z,96626.78
2023-04-01T13:20:06.251Z,96624.56
2023-04-01T13:23:24.548Z,96632.09
2023-04-01T13:26:58.812Z,96640.53
2023-04-01T13:30:23.680Z,96631.78
2023-04-01T13:33:43.048Z,96631.63
2023-04-01T13:36:58.108Z,96629.09
2023-04-01T13:40:15.046Z,96627.09
2023-04-01T13:43:21.143Z,96628.94
2023-04-01T13:46:42.000Z,96634.38
2023-04-01T13:49:57.209Z,96641.72
2023-04-01T13:53:47.079Z,96640.59
2023-04-01T13:57:00.031Z,96640.22
2023-04-01T14:00:24.795Z,96640.94
2023-04-01T14:03:27.893Z,96644.41
2023-04-01T14:06:39.112Z,96645.81
2023-04-01T14:10:10.816Z,96648.44
2023-04-01T14:13:24.591Z,96633.63
2023-04-01T14:16:42.588Z,96626.34
2023-04-01T14:20:16.726Z,96633.47
2023-04-01T14:23:48.859Z,96634.84
2023-04-01T14:26:57.951Z,96633.16
2023-04-01T14:30:22.751Z,96638.50
2023-04-01T14:33:40.818Z,96637.94
2023-04-01T14:36:47.933Z,96632.31
2023-04-01T14:39:53.562Z,96638.78
2023-04-01T14:43:23.147Z,96641.84
2023-04-01T14:46:31.867Z,96638.47
2023-04-01T14:49:40.869Z,96639.59
2023-04-01T14:53:06.291Z,96640.81
2023-04-01T14:56:09.276Z,96639.22
2023-04-01T14:59:18.939Z,96641.31
2023-04-01T15:02:40.164Z,96640.06
2023-04-01T15:06:18.981Z,96637.44
2023-04-01T15:09:34.476Z,96635.19
2023-04-01T15:12:46.089Z,96630.97
2023-04-01T15:16:33.686Z,96645.25
2023-04-01T15:20:07.817Z,96643.75
2023-04-01T15:23:29.402Z,96650.75
2023-04-01T15:26:44.845Z,96663.72
2023-04-01T15:30:15.632Z,96672.16
2023-04-01T15:33:41.913Z,96673.69
2023-04-01T15:36:53.918Z,96662.72
2023-04-01T15:40:09.179Z,96661.38
2023-04-01T15:43:23.742Z,96663.97
2023-04-01T15:46:42.378Z,96662.28
2023-04-01T15:49:52.236Z,96664.16
2023-04-01T15:53:27.302Z,96666.00
2023-04-01T15:56:53.144Z,96671.16
2023-04-01T16:00:17.736Z,96683.81
2023-04-01T16:03:38.960Z,96679.69
2023-04-01T16:07:00.740Z,96685.69
2023-04-01T16:10:51.535Z,96682.81
2023-04-01T16:14:16.028Z,96682.38
2023-04-01T16:17:44.928Z,96684.22
2023-04-01T16:21:07.100Z,96685.06
2023-04-01T16:24:37.530Z,96677.69
2023-04-01T16:28:11.070Z,96674.19
2023-04-01T16:31:38.443Z,96673.94
2023-04-01T16:35:07.491Z,96682.03
2023-04-01T16:38:16.430Z,96677.81
2023-04-01T16:41:27.489Z,96683.38
2023-04-01T16:44:30.895Z,96680.75
2023-04-01T16:47:41.781Z,96688.97
2023-04-01T16:50:59.934Z,96693.78
2023-04-01T16:54:21.206Z,96699.34
2023-04-01T16:57:45.790Z,96713.56
2023-04-01T17:01:05.951Z,96720.88
2023-04-01T17:04:40.209Z,96731.00
2023-04-01T17:08:02.179Z,96729.94
2023-04-01T17:11:20.407Z,96735.38
2023-04-01T17:14:32.204Z,96736.38
2023-04-01T17:17:51.031Z,96739.03
2023-04-01T17:20:57.133Z,96731.94
2023-04-01T17:24:02.904Z,96731.41
2023-04-01T17:27:29.976Z,96741.84
2023-04-01T17:31:01.811Z,96743.91
2023-04-01T17:34:05.276Z,96750.78
2023-04-01T17:37:31.527Z,96748.25
2023-04-01T17:41:13.197Z,96751.97
2023-04-01T17:44:25.254Z,96757.22
2023-04-01T17:47:31.419Z,96754.59
2023-04-01T17:51:04.595Z,96756.94
2023-04-01T17:54:41.182Z,96765.56
2023-04-01T17:58:00.429Z,96761.56
2023-04-01T18:01:35.539Z,96769.63
2023-04-01T18:04:43.817Z,96773.41
2023-04-01T18:08:08.696Z,96778.41
2023-04-01T18:11:30.266Z,96784.25
2023-04-01T18:14:41.894Z,96789.03
2023-04-01T18:17:57.267Z,96798.34
2023-04-01T18:21:08.869Z,96799.69
2023-04-01T18:24:33.504Z,96809.72
2023-04-01T18:27:42.056Z,96807.31
2023-04-01T18:30:53.840Z,96805.94
2023-04-01T18:34:19.674Z,96814.00
2023-04-01T18:37:33.087Z,96812.06
2023-04-01T18:40:39.488Z,96817.66
2023-04-01T18:44:21.185Z,96820.50
2023-04-01T18:47:47.032Z,96822.75
2023-04-01T18:50:53.019Z,96825.56
2023-04-01T18:54:03.223Z,96827.38
2023-04-01T18:57:17.215Z,96833.13
2023-04-01T19:00:24.055Z,96829.50
2023-04-01T19:03:34.658Z,96834.41
2023-04-01T19:06:50.489Z,96836.03
2023-04-01T19:09:53.767Z,96840.16
2023-04-01T19:13:19.860Z,96839.69
2023-04-01T19:16:37.941Z,96847.59
2023-04-01T19:19:56.353Z,96847.25
2023-04-01T19:23:11.164Z,96846.31
2023-04-01T19:26:56.367Z,96853.00
2023-04-01T19:30:12.836Z,96855.78
2023-04-01T19:33:24.581Z,96854.00
2023-04-01T19:36:48.623Z,96856.09
2023-04-01T19:40:19.586Z,96855.81
2023-04-01T19:43:47.176Z,96857.94
2023-04-01T19:47:20.196Z,96869.03
2023-04-01T19:50:44.219Z,96871.16
2023-04-01T19:54:22.539Z,96883.25
2023-04-01T19:57:46.093Z,96874.09
2023-04-01T20:00:55.516Z,96872.28
2023-04-01T20:04:10.438Z,96880.63
2023-04-01T20:07:19.485Z,96872.09
2023-04-01T20:11:00.364Z,96878.50
2023-04-01T20:14:22.567Z,96883.19
2023-04-01T20:17:27.965Z,96887.63
2023-04-01T20:20:31.622Z,96888.59
2023-04-01T20:23:51.180Z,96892.38
2023-04-01T20:27:31.966Z,96889.63
2023-04-01T20:30:34.586Z,96890.25
2023-04-01T20:34:13.858Z,96892.88
2023-04-01T20:37:19.443Z,96890.78
2023-04-01T20:40:35.800Z,96893.03
2023-04-01T20:44:06.917Z,96903.81
2023-04-01T20:47:37.345Z,96899.72
2023-04-01T20:50:51.250Z,96895.97
2023-04-01T20:54:23.285Z,96893.34
2023-04-01T20:57:29.453Z,96894.66
2023-04-01T21:00:39.098Z,96894.16
2023-04-01T21:03:51.224Z,96900.53
2023-04-01T21:07:07.883Z,96895.94
2023-04-01T21:10:35.278Z,96897.25
2023-04-01T21:13:45.086Z,96901.44
2023-04-01T21:17:14.419Z,96901.78
2023-04-01T21:20:33.423Z,96910.91
2023-04-01T21:23:48.498Z,96907.81
2023-04-01T21:27:00.956Z,96903.72
2023-04-01T21:30:26.112Z,96909.88
2023-04-01T21:33:38.106Z,96909.53
2023-04-01T21:36:46.659Z,96906.69
2023-04-01T21:40:17.124Z,96908.75
2023-04-01T21:43:45.922Z,96912.91
2023-04-01T21:47:16.688Z,96911.44
2023-04-01T21:50:46.509Z,96913.53
2023-04-01T21:54:27.631Z,96914.53
2023-04-01T21:58:11.872Z,96919.56
2023-04-01T22:01:36.285Z,96913.94
2023-04-01T22:04:54.250Z,96911.31
2023-04-01T22:08:24.963Z,96910.63
2023-04-01T22:12:05.954Z,96911.25
2023-04-01T22:15:30.868Z,96917.94
2023-04-01T22:18:49.740Z,96921.44
2023-04-01T22:22:13.979Z,96924.50
2023-04-01T22:25:25.375Z,96914.38
2023-04-01T22:28:40.477Z,96916.66
2023-04-01T22:31:48.800Z,96917.47
2023-04-01T22:35:02.117Z,96919.63
2023-04-01T22:38:10.682Z,96915.06
2023-04-01T22:41:52.770Z,96915.72
2023-04-01T22:45:22.349Z,96923.38
2023-04-01T22:48:46.951Z,96924.38
2023-04-01T22:52:11.355Z,96927.69
2023-04-01T22:55:18.535Z,96924.75
2023-04-01T22:58:29.997Z,96927.63
2023-04-01T23:01:38.513Z,96930.41
2023-04-01T23:04:44.082Z,96930.25
2023-04-01T23:08:20.988Z,96931.31
2023-04-01T23:11:34.704Z,96934.34
2023-04-01T23:14:56.725Z,96932.19
2023-04-01T23:18:10.783Z,96933.03
2023-04-01T23:21:19.490Z,96938.69
2023-04-01T23:24:31.131Z,96935.19
2023-04-01T23:28:15.910Z,96932.81
2023-04-01T23:31:36.776Z,96935.66
2023-04-01T23:34:39.523Z,96930.56
2023-04-01T23:37:42.377Z,96937.25
2023-04-01T23:40:45.998Z,96936.19
2023-04-01T23:43:56.167Z,96944.34
2023-04-01T23:46:59.904Z,96939.84
2023-04-01T23:50:12.181Z,96948.97
2023-04-01T23:53:25.121Z,96943.56
2023-04-01T23:56:44.095Z,96949.56
